Galena, Nevada Weather observations

Data are for 10 minute period ending at time listed.
 Day   Time    Ave.   Ave.  Ave.  Vector   Max.   Total    Solar   
  of    of     Air    Rel.  Wind   Wind    Wind  Precip.   Rad.    
Year   Day     Temp.  Hum.  Speed  Dir.    Gust                    
2014   (PST)    F      %     mph   deg.    mph     in.     W/m2    
------------------------------------------------------------------- 
 355   17:00   51.0    58    5.0    27     21.0    6.53      28  
 355   18:00   50.0    59    9.0   294     19.0    6.53       0  
 355   19:00   44.0    69    8.0     7     17.0    6.53       0  
 355   20:00   44.0    73    5.0   300     10.0    6.53       0  
 355   21:00   43.0    72    7.0   332     15.0    6.53       0  
 355   22:00   44.0    68    8.0   322     17.0    6.53       0  
 355   23:00   47.0    61    9.0   299     23.0    6.53       0  
 356    0:00   44.0    63    5.0    79     17.0    6.53       0  
 356    1:00   43.0    70    4.0   262     19.0    6.53       0  
 356    2:00   38.0    79    5.0   253      8.0    6.53       0  
 356    3:00   40.0    81    2.0   237      7.0    6.53       0  
 356    4:00   39.0    85    3.0   181      7.0    6.53       0  
 356    5:00   37.0    87    3.0     8      5.0    6.53       0  
 356    6:00   41.0    78    3.0   272      9.0    6.53       0  
 356    7:00   39.0    76    3.0   261      9.0    6.53       0  
 356    8:00   38.0    77    2.0     2      7.0    6.53      12  
 356    9:00   46.0    66    4.0    52      9.0    6.53     132  
 356   10:00   46.0    65    3.0   147      9.0    6.53     244  
 356   11:00   51.0    60    4.0   131      9.0    6.53     352  
 356   12:00   54.0    53    5.0    96      9.0    6.53     456  
 356   13:00   50.0    58    5.0    31     10.0    6.53     473  
 356   14:00   53.0    55    9.0    37     15.0    6.53     372  
 356   15:00   51.0    54   11.0    15     20.0    6.53     292  
 356   16:00   48.0    60    4.0   358     22.0    6.53     112  

Return to Galena, Nevada graphs page.


Western Regional Climate Center,wrcc@dri.edu